Time;durP1;ratioP1;P1;durP2;ratioP2;P2;SDS_P1;SDS_P2;PMS_P1;PMS_P2;Temp;Humidity;BMP_temperature;BMP_pressure;BME280_temperature;BME280_humidity;BME280_pressure;Samples;Min_cycle;Max_cycle;Signal;HPM_P1;HPM_P2
2022/03/27 00:00:52;;;;;;;;;;;;;;;9.74;100.00;103448.72;5098591;28;20016;-70
2022/03/27 00:03:17;;;;;;;;;;;;;;;9.81;100.00;103444.31;5098437;28;19920;-70
2022/03/27 00:05:42;;;;;;;;;;;;;;;9.73;100.00;103440.75;5116560;28;19923;-70
2022/03/27 00:08:09;;;;;;;;;;;;;;;9.70;100.00;103430.13;5098401;28;19920;-70
2022/03/27 00:11:23;;;;;;;;;;;;;;;9.56;100.00;103437.19;5098270;28;20369;-69
2022/03/27 00:13:21;;;;;;;;;;;;;;;9.57;100.00;103428.31;5101094;28;19927;-70
2022/03/27 00:15:46;;;;;;;;;;;;;;;9.66;100.00;103423.06;5098682;28;19923;-70
2022/03/27 00:18:11;;;;;;;;;;;;;;;9.69;100.00;103417.75;5116002;28;19920;-69
2022/03/27 00:20:36;;;;;;;;;;;;;;;9.70;100.00;103415.09;5097997;28;20292;-70
2022/03/27 00:23:01;;;;;;;;;;;;;;;9.71;100.00;103413.31;5116400;28;19916;-70
2022/03/27 00:25:27;;;;;;;;;;;;;;;9.66;100.00;103404.47;5098214;28;19976;-70
2022/03/27 00:27:52;;;;;;;;;;;;;;;9.75;100.00;103401.84;5097922;28;19916;-70
2022/03/27 00:30:17;;;;;;;;;;;;;;;9.78;100.00;103401.84;5116313;28;20416;-69
2022/03/27 00:32:42;;;;;;;;;;;;;;;9.63;100.00;103396.53;5116011;28;19915;-69
2022/03/27 00:35:08;;;;;;;;;;;;;;;9.59;100.00;103390.31;5097867;28;20309;-70
2022/03/27 00:37:34;;;;;;;;;;;;;;;9.57;100.00;103393.81;5116726;28;19920;-70
2022/03/27 00:39:59;;;;;;;;;;;;;;;9.65;100.00;103387.66;5116119;28;19916;-70
2022/03/27 00:42:24;;;;;;;;;;;;;;;9.54;100.00;103393.81;5115908;28;19916;-70
2022/03/27 00:44:50;;;;;;;;;;;;;;;9.55;100.00;103387.66;5097726;28;19915;-70
2022/03/27 00:47:15;;;;;;;;;;;;;;;9.47;100.00;103394.72;5115881;28;19962;-70
2022/03/27 00:49:40;;;;;;;;;;;;;;;9.48;100.00;103401.78;5097691;28;19976;-70
2022/03/27 00:52:05;;;;;;;;;;;;;;;9.54;100.00;103396.47;5097449;28;19955;-70
2022/03/27 00:54:31;;;;;;;;;;;;;;;9.57;100.00;103396.47;5115693;28;19916;-69
2022/03/27 00:56:56;;;;;;;;;;;;;;;9.55;100.00;103392.97;5097046;28;19989;-70
2022/03/27 00:59:21;;;;;;;;;;;;;;;9.49;100.00;103398.22;5112089;27;19972;-70
2022/03/27 01:01:47;;;;;;;;;;;;;;;9.52;100.00;103400.91;5135959;27;19954;-70
2022/03/27 01:04:12;;;;;;;;;;;;;;;9.60;100.00;103401.78;5117716;27;20320;-70
2022/03/27 01:06:39;;;;;;;;;;;;;;;9.46;100.00;103398.22;5117627;27;20366;-69
2022/03/27 01:11:49;;;;;;;;;;;;;;;9.43;100.00;103401.78;5136387;27;19968;-70
2022/03/27 01:14:18;;;;;;;;;;;;;;;9.33;100.00;103400.84;5136029;27;19916;-70
2022/03/27 01:16:44;;;;;;;;;;;;;;;9.19;100.00;103397.28;5136746;27;19922;-69
2022/03/27 01:19:11;;;;;;;;;;;;;;;9.18;100.00;103397.28;5117730;27;19971;-70
2022/03/27 01:21:38;;;;;;;;;;;;;;;9.21;100.00;103392.88;5136033;27;19916;-70
2022/03/27 01:24:04;;;;;;;;;;;;;;;9.11;100.00;103395.47;5135190;27;19922;-70
2022/03/27 01:26:29;;;;;;;;;;;;;;;9.07;100.00;103389.28;5117410;27;20374;-70
2022/03/27 01:28:54;;;;;;;;;;;;;;;9.07;100.00;103393.69;5135612;27;19916;-71
2022/03/27 01:31:20;;;;;;;;;;;;;;;9.01;100.00;103391.88;5135670;27;20362;-69
2022/03/27 01:33:45;;;;;;;;;;;;;;;9.10;100.00;103399.91;5117239;27;20370;-70
2022/03/27 01:36:10;;;;;;;;;;;;;;;9.25;100.00;103399.94;5117143;27;20305;-70
2022/03/27 01:38:35;;;;;;;;;;;;;;;9.19;100.00;103404.34;5135377;27;19968;-70
2022/03/27 01:41:01;;;;;;;;;;;;;;;9.02;100.00;103395.44;5116988;27;19916;-70
2022/03/27 01:43:26;;;;;;;;;;;;;;;9.10;100.00;103399.00;5135125;27;19960;-70
2022/03/27 01:45:51;;;;;;;;;;;;;;;9.04;100.00;103393.69;5116794;27;19915;-69
2022/03/27 01:48:17;;;;;;;;;;;;;;;9.03;100.00;103391.91;5135074;27;19951;-70
2022/03/27 01:50:42;;;;;;;;;;;;;;;9.06;100.00;103391.94;5116846;27;20362;-70
2022/03/27 01:53:07;;;;;;;;;;;;;;;9.04;100.00;103385.72;5116751;27;20346;-70
2022/03/27 01:55:32;;;;;;;;;;;;;;;9.19;100.00;103397.28;5135106;27;19915;-70
2022/03/27 01:57:57;;;;;;;;;;;;;;;9.05;100.00;103385.75;5135110;27;19931;-70
2022/03/27 02:03:28;;;;;;;;;;;;;;;8.69;100.00;103379.38;5135098;27;19919;-71
2022/03/27 02:08:57;;;;;;;;;;;;;;;8.78;100.00;103382.06;5135144;27;19919;-71
2022/03/27 02:11:23;;;;;;;;;;;;;;;8.69;100.00;103374.97;5134921;27;19915;-71
2022/03/27 02:13:49;;;;;;;;;;;;;;;8.63;100.00;103384.66;5116451;27;19920;-70
2022/03/27 02:16:15;;;;;;;;;;;;;;;8.56;100.00;103389.00;5116173;28;19915;-71
2022/03/27 02:18:42;;;;;;;;;;;;;;;8.53;100.00;103383.69;5116046;28;19944;-71
2022/03/27 02:21:07;;;;;;;;;;;;;;;8.60;100.00;103389.94;5116466;28;19916;-71
2022/03/27 02:23:32;;;;;;;;;;;;;;;8.49;100.00;103387.22;5116464;28;19922;-72
2022/03/27 02:25:58;;;;;;;;;;;;;;;8.60;100.00;103392.56;5116365;28;20300;-71
2022/03/27 02:28:23;;;;;;;;;;;;;;;8.50;100.00;103393.38;5116404;28;19927;-71
2022/03/27 02:30:48;;;;;;;;;;;;;;;8.31;100.00;103389.72;5134973;28;19915;-72
2022/03/27 02:33:24;;;;;;;;;;;;;;;8.28;100.00;103384.41;5115941;27;19915;-71
2022/03/27 02:35:49;;;;;;;;;;;;;;;8.25;100.00;103388.81;5138213;27;19922;-72
2022/03/27 02:38:15;;;;;;;;;;;;;;;8.27;100.00;103392.34;5120102;27;19915;-71
2022/03/27 02:41:15;;;;;;;;;;;;;;;8.03;100.00;103385.06;5139032;27;19916;-70
2022/03/27 02:43:40;;;;;;;;;;;;;;;7.89;100.00;103397.31;5139330;27;19983;-70
2022/03/27 02:46:06;;;;;;;;;;;;;;;8.14;100.00;103399.28;5120409;27;19916;-71
2022/03/27 02:48:31;;;;;;;;;;;;;;;7.95;100.00;103410.59;5138786;27;20343;-71
2022/03/27 02:50:56;;;;;;;;;;;;;;;8.00;100.00;103415.91;5120260;27;20270;-71
2022/03/27 02:53:41;;;;;;;;;;;;;;;8.08;100.00;103409.81;5120202;27;20320;-71
2022/03/27 02:56:07;;;;;;;;;;;;;;;8.06;100.00;103418.59;5120260;27;19920;-71
2022/03/27 03:01:38;;;;;;;;;;;;;;;8.10;100.00;103428.38;5138655;27;19919;-71
2022/03/27 03:04:04;;;;;;;;;;;;;;;8.03;100.00;103421.22;5120141;27;19920;-72
2022/03/27 03:06:31;;;;;;;;;;;;;;;8.12;100.00;103421.31;5115225;28;19916;-71
2022/03/27 03:08:56;;;;;;;;;;;;;;;8.10;100.00;103418.63;5099523;28;20374;-70
2022/03/27 03:11:22;;;;;;;;;;;;;;;8.13;100.00;103421.31;5117928;28;19969;-70
2022/03/27 03:13:47;;;;;;;;;;;;;;;7.94;100.00;103411.47;5117648;28;20470;-71
2022/03/27 03:16:14;;;;;;;;;;;;;;;8.02;100.00;103419.47;5099491;28;20006;-71
2022/03/27 03:18:40;;;;;;;;;;;;;;;7.98;100.00;103422.94;5117436;28;19924;-69
2022/03/27 03:21:05;;;;;;;;;;;;;;;8.06;100.00;103422.16;5099504;28;19923;-70
2022/03/27 03:23:32;;;;;;;;;;;;;;;7.99;100.00;103415.00;5082425;28;19931;-70
2022/03/27 03:25:58;;;;;;;;;;;;;;;8.10;100.00;103412.47;5099826;28;19920;-69
2022/03/27 03:28:23;;;;;;;;;;;;;;;8.04;100.00;103415.06;5117525;28;20097;-69
2022/03/27 03:30:48;;;;;;;;;;;;;;;8.13;100.00;103413.38;5117524;28;20006;-69
2022/03/27 03:33:13;;;;;;;;;;;;;;;8.02;100.00;103407.09;5117289;28;19976;-70
2022/03/27 03:35:39;;;;;;;;;;;;;;;8.06;100.00;103406.28;5117602;28;19916;-70
2022/03/27 03:38:05;;;;;;;;;;;;;;;8.06;100.00;103406.28;5117141;28;20306;-69
2022/03/27 03:40:30;;;;;;;;;;;;;;;8.20;100.00;103411.66;5098934;28;20341;-69
2022/03/27 03:42:55;;;;;;;;;;;;;;;8.23;100.00;103412.63;5099063;28;20367;-69
2022/03/27 03:45:21;;;;;;;;;;;;;;;8.09;100.00;103403.66;5099127;28;20300;-69
2022/03/27 03:47:46;;;;;;;;;;;;;;;8.10;100.00;103400.13;5117134;28;19919;-70
2022/03/27 03:50:11;;;;;;;;;;;;;;;8.07;100.00;103389.50;5099034;28;19951;-69
2022/03/27 03:52:36;;;;;;;;;;;;;;;8.15;100.00;103398.41;5117088;28;19916;-69
2022/03/27 03:55:02;;;;;;;;;;;;;;;8.11;100.00;103387.78;5098428;28;20347;-69
2022/03/27 03:57:27;;;;;;;;;;;;;;;8.20;100.00;103386.09;5098827;28;19916;-69
2022/03/27 03:59:52;;;;;;;;;;;;;;;8.19;100.00;103381.69;5116773;28;20393;-71
2022/03/27 04:02:19;;;;;;;;;;;;;;;8.20;100.00;103387.84;5098528;28;19987;-69
2022/03/27 04:04:44;;;;;;;;;;;;;;;8.14;100.00;103388.69;5098480;28;19915;-69
2022/03/27 04:07:09;;;;;;;;;;;;;;;8.25;100.00;103376.47;5098745;28;19926;-70
2022/03/27 04:09:35;;;;;;;;;;;;;;;8.28;100.00;103376.47;5127811;27;19951;-70
2022/03/27 04:12:00;;;;;;;;;;;;;;;8.21;100.00;103374.63;5118453;27;19984;-70
2022/03/27 04:14:25;;;;;;;;;;;;;;;8.28;100.00;103373.84;5118612;27;19922;-70
2022/03/27 04:16:50;;;;;;;;;;;;;;;8.26;100.00;103369.38;5129466;27;19954;-70
2022/03/27 04:19:16;;;;;;;;;;;;;;;8.21;100.00;103364.03;5098567;28;20003;-69
2022/03/27 04:21:41;;;;;;;;;;;;;;;8.14;100.00;103361.34;5116615;28;20019;-69
2022/03/27 04:24:07;;;;;;;;;;;;;;;7.98;100.00;103347.09;5098321;28;20374;-69
2022/03/27 04:26:32;;;;;;;;;;;;;;;8.12;100.00;103357.78;5097877;28;19916;-70
2022/03/27 04:28:58;;;;;;;;;;;;;;;8.06;100.00;103355.97;5097634;28;19920;-69
2022/03/27 04:31:23;;;;;;;;;;;;;;;8.10;100.00;103356.91;5116025;28;20038;-69
2022/03/27 04:33:48;;;;;;;;;;;;;;;8.08;100.00;103358.63;5114841;28;19920;-69
2022/03/27 04:36:13;;;;;;;;;;;;;;;8.12;100.00;103360.41;5097981;28;20339;-69
2022/03/27 04:38:39;;;;;;;;;;;;;;;8.11;100.00;103359.56;5126453;27;20012;-70
2022/03/27 04:41:04;;;;;;;;;;;;;;;7.99;100.00;103353.28;5136644;27;20378;-69
2022/03/27 04:43:29;;;;;;;;;;;;;;;7.96;100.00;103359.41;5136565;27;20297;-69
2022/03/27 04:45:55;;;;;;;;;;;;;;;8.00;100.00;103352.41;5117973;27;20278;-69
2022/03/27 04:48:20;;;;;;;;;;;;;;;7.94;100.00;103357.66;5118151;27;20361;-69
2022/03/27 04:50:45;;;;;;;;;;;;;;;7.92;100.00;103364.69;5136376;27;19923;-69
2022/03/27 04:53:10;;;;;;;;;;;;;;;8.01;100.00;103370.03;5127748;27;19923;-70
2022/03/27 04:55:36;;;;;;;;;;;;;;;7.90;100.00;103364.66;5115050;27;20427;-69
2022/03/27 04:58:01;;;;;;;;;;;;;;;7.89;100.00;103364.66;5096680;28;19915;-69
2022/03/27 05:00:26;;;;;;;;;;;;;;;7.81;100.00;103360.16;5115692;28;19924;-69
2022/03/27 05:02:52;;;;;;;;;;;;;;;7.89;100.00;103368.19;5120679;27;20281;-69
2022/03/27 05:05:17;;;;;;;;;;;;;;;7.90;100.00;103358.47;5117797;27;20035;-69
2022/03/27 05:07:43;;;;;;;;;;;;;;;8.01;100.00;103362.09;5117582;27;20274;-69
2022/03/27 05:10:09;;;;;;;;;;;;;;;7.95;100.00;103356.75;5110448;28;19988;-70
2022/03/27 05:12:34;;;;;;;;;;;;;;;7.98;100.00;103355.03;5126140;27;19954;-69
2022/03/27 05:15:00;;;;;;;;;;;;;;;7.98;100.00;103348.84;5111569;28;20429;-70
2022/03/27 05:17:25;;;;;;;;;;;;;;;7.90;100.00;103350.53;5114736;27;20312;-70
2022/03/27 05:19:50;;;;;;;;;;;;;;;7.82;100.00;103343.44;5123131;27;19919;-70
2022/03/27 05:22:16;;;;;;;;;;;;;;;7.87;100.00;103343.47;5122617;27;19919;-70
2022/03/27 05:24:42;;;;;;;;;;;;;;;7.85;100.00;103347.88;5108830;27;19923;-70
2022/03/27 05:27:07;;;;;;;;;;;;;;;7.86;100.00;103346.13;5117416;27;19922;-71
2022/03/27 05:29:32;;;;;;;;;;;;;;;7.85;100.00;103344.34;5135807;27;19916;-70
2022/03/27 05:31:58;;;;;;;;;;;;;;;7.86;100.00;103339.06;5112973;28;19924;-70
2022/03/27 05:34:24;;;;;;;;;;;;;;;7.71;100.00;103339.81;5097056;28;19923;-70
2022/03/27 05:36:49;;;;;;;;;;;;;;;7.73;100.00;103339.84;5112535;27;19987;-71
2022/03/27 05:39:14;;;;;;;;;;;;;;;7.72;100.00;103346.00;5110490;28;19923;-71
2022/03/27 05:44:42;;;;;;;;;;;;;;;7.65;100.00;103333.59;5135408;27;19954;-69
2022/03/27 05:47:08;;;;;;;;;;;;;;;7.65;100.00;103336.25;5107593;27;19919;-70
2022/03/27 05:49:33;;;;;;;;;;;;;;;7.67;100.00;103332.72;5135280;27;19920;-70
2022/03/27 05:55:01;;;;;;;;;;;;;;;7.73;100.00;103330.16;5135304;27;19963;-69
2022/03/27 05:57:26;;;;;;;;;;;;;;;7.83;100.00;103331.13;5135190;27;19919;-70
2022/03/27 06:00:12;;;;;;;;;;;;;;;7.72;100.00;103333.66;5135257;27;19933;-69
2022/03/27 06:02:37;;;;;;;;;;;;;;;7.76;100.00;103331.94;5116694;27;20429;-69
2022/03/27 06:05:03;;;;;;;;;;;;;;;7.73;100.00;103335.44;5132156;27;19971;-70
2022/03/27 06:07:28;;;;;;;;;;;;;;;7.86;100.00;103339.06;5096604;28;19984;-69
2022/03/27 06:09:54;;;;;;;;;;;;;;;7.88;100.00;103337.31;5114233;28;19968;-70
2022/03/27 06:12:21;;;;;;;;;;;;;;;7.96;100.00;103346.19;5096145;28;19916;-69
2022/03/27 06:14:48;;;;;;;;;;;;;;;7.85;100.00;103347.00;5097184;28;19924;-69
2022/03/27 06:17:13;;;;;;;;;;;;;;;7.77;100.00;103344.25;5124245;27;19920;-71
2022/03/27 06:19:38;;;;;;;;;;;;;;;7.77;100.00;103354.84;5101055;27;19927;-70
2022/03/27 06:22:05;;;;;;;;;;;;;;;7.73;100.00;103347.78;5134383;27;20284;-70
2022/03/27 06:24:31;;;;;;;;;;;;;;;7.87;100.00;103347.88;5117979;28;19916;-72
2022/03/27 06:26:57;;;;;;;;;;;;;;;7.90;100.00;103350.53;5096739;28;19969;-71
2022/03/27 06:29:22;;;;;;;;;;;;;;;7.88;100.00;103350.53;5096513;28;19916;-70
2022/03/27 06:31:48;;;;;;;;;;;;;;;8.06;100.00;103352.44;5131259;28;19926;-70
2022/03/27 06:34:13;;;;;;;;;;;;;;;8.07;100.00;103352.44;5096243;28;20324;-70
2022/03/27 06:36:41;;;;;;;;;;;;;;;8.09;100.00;103353.34;5096436;28;19916;-71
2022/03/27 06:39:07;;;;;;;;;;;;;;;8.25;100.00;103355.28;5123556;28;19930;-70
2022/03/27 06:41:32;;;;;;;;;;;;;;;8.24;100.00;103348.19;5096021;28;19915;-71
2022/03/27 06:43:57;;;;;;;;;;;;;;;8.24;100.00;103348.19;5096201;28;19919;-72
2022/03/27 06:46:22;;;;;;;;;;;;;;;8.30;100.00;103345.63;5095965;28;20003;-70
2022/03/27 06:48:49;;;;;;;;;;;;;;;8.44;100.00;103351.88;5123839;28;20369;-71
2022/03/27 06:51:15;;;;;;;;;;;;;;;8.59;100.00;103354.59;5116071;28;20006;-70
2022/03/27 06:53:51;;;;;;;;;;;;;;;8.49;100.00;103352.78;5116133;28;20350;-71
2022/03/27 06:56:16;;;;;;;;;;;;;;;8.61;100.00;103349.31;5134570;28;19919;-70
2022/03/27 06:58:41;;;;;;;;;;;;;;;8.61;100.00;103346.66;5134366;28;19930;-70
2022/03/27 07:03:50;;;;;;;;;;;;;;;8.42;100.00;103343.03;5114225;28;19930;-71
2022/03/27 07:06:17;;;;;;;;;;;;;;;8.54;100.00;103345.72;5114027;28;19916;-70
2022/03/27 07:08:42;;;;;;;;;;;;;;;8.44;100.00;103338.63;5105884;28;20286;-70
2022/03/27 07:11:07;;;;;;;;;;;;;;;8.64;100.00;103336.97;5115934;28;19920;-71
2022/03/27 07:13:34;;;;;;;;;;;;;;;8.92;100.00;103345.91;5115933;28;19922;-71
2022/03/27 07:15:59;;;;;;;;;;;;;;;8.75;100.00;103343.19;5115782;28;20010;-72
2022/03/27 07:18:24;;;;;;;;;;;;;;;8.38;100.00;103337.72;5115498;28;20006;-72
2022/03/27 07:20:50;;;;;;;;;;;;;;;8.55;100.00;103330.72;5134584;27;20315;-72
2022/03/27 07:23:17;;;;;;;;;;;;;;;8.59;100.00;103338.69;5119981;27;19943;-72
2022/03/27 07:25:43;;;;;;;;;;;;;;;8.58;100.00;103344.88;5138832;27;20075;-72
2022/03/27 07:28:09;;;;;;;;;;;;;;;8.50;100.00;103341.31;5119823;27;19926;-73
2022/03/27 07:30:35;;;;;;;;;;;;;;;8.32;100.00;103340.31;5138136;27;19915;-73
2022/03/27 07:33:02;;;;;;;;;;;;;;;8.23;100.00;103333.19;5138282;27;19968;-73
2022/03/27 07:35:30;;;;;;;;;;;;;;;8.27;100.00;103336.75;5138755;27;19915;-72
2022/03/27 07:37:55;;;;;;;;;;;;;;;8.24;100.00;103332.31;5138084;27;19995;-73
2022/03/27 07:40:20;;;;;;;;;;;;;;;8.27;100.00;103327.06;5138125;27;20334;-73
2022/03/27 07:42:47;;;;;;;;;;;;;;;8.26;100.00;103330.56;5110799;27;20328;-71
2022/03/27 07:45:13;;;;;;;;;;;;;;;8.19;100.00;103333.13;5138130;27;19927;-74
2022/03/27 07:47:38;;;;;;;;;;;;;;;8.25;100.00;103330.56;5104203;28;19968;-72
2022/03/27 07:50:04;;;;;;;;;;;;;;;8.24;100.00;103329.66;5117388;28;19916;-70
2022/03/27 07:52:30;;;;;;;;;;;;;;;8.28;100.00;103323.53;5098445;28;19916;-73
2022/03/27 07:54:55;;;;;;;;;;;;;;;8.22;100.00;103333.16;5125878;27;20411;-71
2022/03/27 07:57:20;;;;;;;;;;;;;;;8.29;100.00;103325.28;5106449;28;20018;-73
2022/03/27 07:59:46;;;;;;;;;;;;;;;8.26;100.00;103341.16;5131497;27;20084;-71
2022/03/27 08:02:11;;;;;;;;;;;;;;;8.34;100.00;103338.56;5115655;27;19942;-72
2022/03/27 08:04:36;;;;;;;;;;;;;;;8.36;100.00;103340.34;5118677;27;19915;-71
2022/03/27 08:07:01;;;;;;;;;;;;;;;8.31;100.00;103336.78;5131117;27;19954;-71
2022/03/27 08:09:27;;;;;;;;;;;;;;;8.31;100.00;103339.44;5084018;28;19928;-72
2022/03/27 08:11:52;;;;;;;;;;;;;;;8.46;100.00;103328.91;5106592;27;19922;-69
2022/03/27 08:14:17;;;;;;;;;;;;;;;8.48;100.00;103345.69;5109608;28;19923;-71
2022/03/27 08:16:43;;;;;;;;;;;;;;;8.56;100.00;103340.44;5102289;28;19972;-73
2022/03/27 08:19:08;;;;;;;;;;;;;;;8.50;100.00;103341.31;5097349;28;20014;-75
2022/03/27 08:21:33;;;;;;;;;;;;;;;8.57;100.00;103343.09;5101564;28;20018;-70
2022/03/27 08:23:59;;;;;;;;;;;;;;;8.63;100.00;103337.84;5127095;27;19915;-70
2022/03/27 08:29:08;;;;;;;;;;;;;;;8.72;100.00;103322.00;5138427;27;19968;-73
2022/03/27 08:31:33;;;;;;;;;;;;;;;8.87;100.00;103324.69;5137285;27;20371;-74
2022/03/27 08:33:58;;;;;;;;;;;;;;;8.94;100.00;103328.25;5118194;27;20431;-70
2022/03/27 08:36:24;;;;;;;;;;;;;;;8.80;100.00;103320.25;5130445;27;19965;-76
2022/03/27 08:38:49;;;;;;;;;;;;;;;8.98;100.00;103317.66;5118199;27;19923;-71
2022/03/27 08:41:15;;;;;;;;;;;;;;;8.91;100.00;103318.53;5112840;28;19968;-69
2022/03/27 08:43:42;;;;;;;;;;;;;;;8.93;100.00;103314.13;5099081;27;19919;-70
2022/03/27 08:46:08;;;;;;;;;;;;;;;9.11;100.00;103310.63;5136657;27;19915;-71
2022/03/27 08:48:35;;;;;;;;;;;;;;;9.22;100.00;103315.09;5117772;27;19921;-71
2022/03/27 08:51:07;;;;;;;;;;;;;;;9.12;100.00;103307.97;5136715;27;20010;-72
2022/03/27 08:53:51;;;;;;;;;;;;;;;9.43;100.00;103297.44;5103206;28;19923;-71
2022/03/27 08:56:18;;;;;;;;;;;;;;;9.42;100.00;103306.28;5103975;27;20374;-71
2022/03/27 08:58:43;;;;;;;;;;;;;;;9.66;100.00;103290.38;5114920;27;19916;-71
2022/03/27 09:01:08;;;;;;;;;;;;;;;9.82;100.00;103297.44;5136114;27;20026;-74
2022/03/27 09:03:34;;;;;;;;;;;;;;;9.93;100.00;103304.50;5105886;27;19920;-72
2022/03/27 09:06:01;;;;;;;;;;;;;;;10.27;100.00;103294.75;5135385;27;19916;-72
2022/03/27 09:08:28;;;;;;;;;;;;;;;11.39;100.00;103287.13;5114834;27;19960;-72
2022/03/27 09:10:53;;;;;;;;;;;;;;;12.04;100.00;103290.09;5135218;27;19945;-72
2022/03/27 09:13:19;;;;;;;;;;;;;;;12.45;100.00;103289.69;5135768;27;19916;-72
2022/03/27 09:15:45;;;;;;;;;;;;;;;12.51;100.00;103292.28;5135858;27;20014;-71
2022/03/27 09:18:11;;;;;;;;;;;;;;;13.42;100.00;103288.38;5114194;27;19919;-70
2022/03/27 09:20:37;;;;;;;;;;;;;;;13.55;100.00;103289.06;5135372;27;20389;-70
2022/03/27 09:23:21;;;;;;;;;;;;;;;13.92;100.00;103298.19;5118585;27;20048;-71
2022/03/27 09:25:46;;;;;;;;;;;;;;;13.41;100.00;103283.91;5123114;27;19915;-71
2022/03/27 09:28:12;;;;;;;;;;;;;;;14.33;100.00;103286.78;5135584;27;20320;-71
2022/03/27 09:30:37;;;;;;;;;;;;;;;14.44;100.00;103288.34;5106362;28;19957;-70
2022/03/27 09:33:02;;;;;;;;;;;;;;;14.68;100.00;103290.53;5115586;28;20371;-72
2022/03/27 09:35:28;;;;;;;;;;;;;;;15.53;100.00;103289.47;5096990;28;20020;-70
2022/03/27 09:37:53;;;;;;;;;;;;;;;15.47;100.00;103292.31;5096875;28;19922;-74
2022/03/27 09:40:18;;;;;;;;;;;;;;;15.70;100.00;103297.09;5115280;28;19916;-73
2022/03/27 09:42:43;;;;;;;;;;;;;;;15.75;100.00;103300.53;5109121;27;19919;-73
2022/03/27 09:45:12;;;;;;;;;;;;;;;15.54;100.00;103296.59;5108213;28;20018;-70
2022/03/27 09:47:38;;;;;;;;;;;;;;;15.72;100.00;103295.25;5101591;27;19919;-72
2022/03/27 09:50:03;;;;;;;;;;;;;;;16.29;100.00;103296.41;5135195;27;19919;-79
2022/03/27 09:52:28;;;;;;;;;;;;;;;16.62;100.00;103301.72;5112931;27;20293;-72
2022/03/27 09:55:00;;;;;;;;;;;;;;;16.89;100.00;103293.81;5117721;27;19915;-76
2022/03/27 09:57:34;;;;;;;;;;;;;;;17.06;100.00;103299.53;5112297;28;19926;-71
2022/03/27 10:00:13;;;;;;;;;;;;;;;17.40;100.00;103293.06;5114948;27;19920;-71
2022/03/27 10:02:38;;;;;;;;;;;;;;;17.62;100.00;103293.25;5114247;27;19945;-73
2022/03/27 10:05:05;;;;;;;;;;;;;;;17.85;100.00;103298.75;5101018;27;19915;-72
2022/03/27 10:07:41;;;;;;;;;;;;;;;17.62;100.00;103293.25;5135778;27;19954;-70
2022/03/27 10:10:09;;;;;;;;;;;;;;;18.11;100.00;103306.81;5135296;27;19926;-71
2022/03/27 10:12:37;;;;;;;;;;;;;;;18.18;100.00;103300.28;5133960;27;19926;-72
2022/03/27 10:15:04;;;;;;;;;;;;;;;18.06;100.00;103293.53;5117101;27;20282;-71
2022/03/27 10:17:31;;;;;;;;;;;;;;;18.91;100.00;103288.56;5135561;27;19915;-71
2022/03/27 10:20:03;;;;;;;;;;;;;;;19.27;100.00;103295.19;5117050;28;19919;-71
2022/03/27 10:22:29;;;;;;;;;;;;;;;19.07;100.00;103286.16;5135659;27;20386;-73
2022/03/27 10:24:55;;;;;;;;;;;;;;;18.62;100.00;103293.31;5116579;28;19922;-71
2022/03/27 10:27:21;;;;;;;;;;;;;;;19.31;100.00;103291.50;5115720;28;20342;-71
2022/03/27 10:29:46;;;;;;;;;;;;;;;19.06;100.00;103288.00;5116852;28;19916;-72
2022/03/27 10:32:12;;;;;;;;;;;;;;;18.71;100.00;103287.56;5116907;28;19915;-70
2022/03/27 10:34:43;;;;;;;;;;;;;;;19.34;100.00;103285.09;5126800;28;19969;-70
2022/03/27 10:37:08;;;;;;;;;;;;;;;20.24;100.00;103286.63;5110203;28;19923;-70
2022/03/27 10:39:53;;;;;;;;;;;;;;;20.58;100.00;103289.56;5107072;28;20022;-70
2022/03/27 10:42:34;;;;;;;;;;;;;;;20.34;100.00;103287.09;5096560;28;19927;-72
2022/03/27 10:45:07;;;;;;;;;;;;;;;21.45;100.00;103289.88;5107544;28;19964;-74
2022/03/27 10:47:33;;;;;;;;;;;;;;;21.79;100.00;103295.41;5117025;28;19965;-75
2022/03/27 10:50:01;;;;;;;;;;;;;;;22.26;100.00;103295.66;5116427;28;19932;-71
2022/03/27 10:52:27;;;;;;;;;;;;;;;22.16;100.00;103299.78;5135252;28;19966;-72
2022/03/27 10:54:57;;;;;;;;;;;;;;;22.16;100.00;103291.66;5133154;28;20293;-77
2022/03/27 10:57:30;;;;;;;;;;;;;;;22.12;100.00;103295.50;5101048;27;19982;-71
2022/03/27 10:59:55;;;;;;;;;;;;;;;23.22;100.00;103284.00;5139007;27;19915;-71
2022/03/27 11:02:39;;;;;;;;;;;;;;;23.33;100.00;103277.03;5135289;27;20294;-72
2022/03/27 11:05:04;;;;;;;;;;;;;;;23.59;100.00;103281.81;5100472;28;20332;-71
2022/03/27 11:07:30;;;;;;;;;;;;;;;24.06;100.00;103282.59;5100928;28;19920;-70
2022/03/27 11:09:55;;;;;;;;;;;;;;;24.69;99.52;103279.63;5100689;28;19923;-74
2022/03/27 11:12:28;;;;;;;;;;;;;;;25.50;89.60;103277.84;5100086;28;19916;-71
2022/03/27 11:14:53;;;;;;;;;;;;;;;25.42;83.11;103276.59;5100176;28;19916;-71
2022/03/27 11:17:31;;;;;;;;;;;;;;;25.56;77.08;103279.25;5124131;27;20002;-71
2022/03/27 11:19:57;;;;;;;;;;;;;;;26.88;65.79;103278.06;5138077;27;19982;-70
2022/03/27 11:22:40;;;;;;;;;;;;;;;26.29;71.93;103275.09;5138430;27;19915;-70
2022/03/27 11:25:29;;;;;;;;;;;;;;;26.95;64.77;103268.44;5139061;27;19926;-71
2022/03/27 11:28:06;;;;;;;;;;;;;;;26.78;73.44;103265.22;5095115;28;19920;-70
2022/03/27 11:30:32;;;;;;;;;;;;;;;26.91;77.75;103255.16;5136736;27;20397;-71
2022/03/27 11:33:14;;;;;;;;;;;;;;;27.58;70.47;103256.44;5103074;27;19996;-71
2022/03/27 11:35:41;;;;;;;;;;;;;;;27.86;68.94;103256.09;5130123;27;19920;-71
2022/03/27 11:38:20;;;;;;;;;;;;;;;27.95;62.67;103261.75;5110850;27;19920;-70
2022/03/27 11:40:45;;;;;;;;;;;;;;;29.02;60.85;103255.78;5120007;27;20364;-71
2022/03/27 11:43:26;;;;;;;;;;;;;;;29.27;60.46;103249.16;5119648;27;19927;-72
2022/03/27 11:45:54;;;;;;;;;;;;;;;28.41;58.74;103256.25;5111322;27;19920;-72
2022/03/27 11:48:19;;;;;;;;;;;;;;;29.12;57.59;103253.19;5128785;27;20400;-72
2022/03/27 11:50:44;;;;;;;;;;;;;;;28.67;55.70;103251.44;5100168;28;19916;-72
2022/03/27 11:53:09;;;;;;;;;;;;;;;28.44;57.97;103254.13;5120503;27;19919;-71
2022/03/27 11:55:35;;;;;;;;;;;;;;;28.98;56.48;103247.97;5138404;27;19915;-72
2022/03/27 11:58:03;;;;;;;;;;;;;;;29.07;52.46;103248.09;5112108;28;19919;-71
2022/03/27 12:00:32;;;;;;;;;;;;;;;29.99;51.20;103253.03;5117590;28;20382;-71
2022/03/27 12:02:58;;;;;;;;;;;;;;;30.00;52.66;103244.66;5117311;28;19915;-70
2022/03/27 12:05:31;;;;;;;;;;;;;;;29.75;51.88;103240.41;5135912;27;19916;-71
2022/03/27 12:07:56;;;;;;;;;;;;;;;31.02;47.92;103243.66;5132129;27;19923;-71
2022/03/27 12:10:23;;;;;;;;;;;;;;;31.50;41.36;103246.53;5115334;27;19954;-71
2022/03/27 12:12:59;;;;;;;;;;;;;;;30.71;44.91;103236.44;5109217;27;19927;-72
2022/03/27 12:15:38;;;;;;;;;;;;;;;30.67;45.19;103228.59;5116896;27;19920;-70
2022/03/27 12:18:06;;;;;;;;;;;;;;;31.78;41.02;103233.78;5112721;27;19915;-71
2022/03/27 12:20:41;;;;;;;;;;;;;;;31.10;41.43;103226.47;5113819;27;19980;-71
2022/03/27 12:23:16;;;;;;;;;;;;;;;31.35;42.40;103219.59;5106755;27;19941;-70
2022/03/27 12:25:41;;;;;;;;;;;;;;;31.82;40.63;103216.84;5116222;27;20007;-72
2022/03/27 12:30:51;;;;;;;;;;;;;;;32.33;38.91;103214.63;5137495;27;20010;-72
2022/03/27 12:33:20;;;;;;;;;;;;;;;31.88;40.69;103204.44;5118437;27;19968;-72
2022/03/27 12:35:49;;;;;;;;;;;;;;;31.10;42.93;103202.63;5118142;27;19972;-71
2022/03/27 12:38:28;;;;;;;;;;;;;;;32.40;38.99;103198.41;5136776;27;19915;-71
2022/03/27 12:40:54;;;;;;;;;;;;;;;32.00;41.99;103192.25;5109722;27;19916;-71
2022/03/27 12:43:21;;;;;;;;;;;;;;;32.10;40.57;103191.22;5136590;27;19938;-72
2022/03/27 12:45:46;;;;;;;;;;;;;;;33.02;37.29;103189.41;5118190;27;19915;-69
2022/03/27 12:48:19;;;;;;;;;;;;;;;33.17;38.63;103183.22;5133812;27;20297;-72
2022/03/27 12:50:46;;;;;;;;;;;;;;;33.04;36.29;103188.25;5129870;27;20006;-69
2022/03/27 12:53:25;;;;;;;;;;;;;;;33.73;33.34;103191.16;5118064;27;20404;-70
2022/03/27 12:55:51;;;;;;;;;;;;;;;32.24;37.80;103179.72;5134898;27;19938;-70
2022/03/27 12:58:18;;;;;;;;;;;;;;;31.91;40.42;103172.00;5117748;27;19963;-70
2022/03/27 13:00:44;;;;;;;;;;;;;;;32.30;39.21;103170.03;5117812;27;19915;-71